Serifos, Greece
Current Conditions -  °F | °C
As of 6:20 PM on Saturday 25 Oct 2014 (Local Time) from LGMK Reporting Station
Scattered Clouds Scattered Clouds  
Wind Chill: 59°   Ceiling: Unl
Heat Index: 59°   Visibility: 6mi
Dew Point: 55°   Wind: 14mph
Humidity: 88%   Direction: 20°NNE
Pressure: 29.85"   Gusts: NA
Location:  37.15°N, 24.5°E
Report Text: LGMK 251520Z 02012KT 9999 SCT012 SCT018 15/13 Q1011
Loading
Personal Weather Stations






























Interactive Weather Map
Tropical Storm Tracking
New forecast layout! Learn more

10-Day Weather Forecast

Advertisements
Track Severe Weather on mobile